METAR Data
IDs: Format: Raw Decoded Include TAF

Data at: 1033 UTC 18 Jan 2022

LEVS 181000Z VRB01KT CAVOK 05/M03 Q1031